Time;durP1;ratioP1;P1;durP2;ratioP2;P2;SDS_P1;SDS_P2;PMS_P1;PMS_P2;Temp;Humidity;BMP_temperature;BMP_pressure;BME280_temperature;BME280_humidity;BME280_pressure;Samples;Min_cycle;Max_cycle;Signal;HPM_P1;HPM_P2
2021/11/03 00:02:20;;;;;;;23.80;15.68;;;19.40;64.20;;;;;;6216767;23;20460;-80
2021/11/03 00:04:46;;;;;;;22.90;15.95;;;19.30;64.60;;;;;;6217228;23;20552;-80
2021/11/03 00:07:11;;;;;;;21.58;14.80;;;19.40;66.00;;;;;;6217974;23;20537;-78
2021/11/03 00:09:38;;;;;;;21.58;15.18;;;19.30;65.30;;;;;;6247243;23;20137;-79
2021/11/03 00:12:07;;;;;;;24.63;15.50;;;19.30;64.60;;;;;;6247149;23;20179;-80
2021/11/03 00:14:33;;;;;;;21.23;14.43;;;19.30;64.50;;;;;;6247395;23;20147;-79
2021/11/03 00:16:59;;;;;;;22.23;14.70;;;19.30;65.60;;;;;;6247142;23;20205;-79
2021/11/03 00:19:24;;;;;;;23.98;15.50;;;19.30;65.10;;;;;;6247428;23;20512;-79
2021/11/03 00:21:50;;;;;;;21.20;14.73;;;19.30;65.00;;;;;;6247020;23;20126;-79
2021/11/03 00:24:16;;;;;;;22.35;15.15;;;19.30;65.60;;;;;;6247339;23;20600;-80
2021/11/03 00:26:41;;;;;;;22.52;14.93;;;19.30;65.30;;;;;;6246928;23;20569;-80
2021/11/03 00:29:07;;;;;;;21.15;15.13;;;19.30;65.80;;;;;;6247085;23;20582;-79
2021/11/03 00:31:33;;;;;;;21.33;14.63;;;19.20;65.80;;;;;;6247311;23;20133;-80
2021/11/03 00:33:58;;;;;;;23.60;16.05;;;19.20;65.20;;;;;;6220046;23;20137;-79
2021/11/03 00:36:24;;;;;;;24.27;15.50;;;19.20;64.70;;;;;;6220313;23;20207;-78
2021/11/03 00:38:49;;;;;;;21.17;15.35;;;19.20;65.50;;;;;;6247142;23;20153;-77
2021/11/03 00:41:15;;;;;;;24.10;15.93;;;19.20;65.40;;;;;;6246856;23;20130;-79
2021/11/03 00:43:41;;;;;;;25.60;16.27;;;19.20;65.40;;;;;;6195130;23;20169;-79
2021/11/03 00:46:06;;;;;;;23.23;15.07;;;19.20;65.60;;;;;;6247182;23;20145;-79
2021/11/03 00:48:32;;;;;;;22.85;14.55;;;19.20;65.80;;;;;;6220385;23;20565;-79
2021/11/03 00:50:59;;;;;;;21.23;15.30;;;19.20;65.80;;;;;;6246808;23;20133;-78
2021/11/03 00:53:24;;;;;;;23.52;15.13;;;19.20;65.90;;;;;;6219992;23;20164;-79
2021/11/03 00:55:50;;;;;;;22.35;15.00;;;19.20;65.80;;;;;;6219998;23;20126;-80
2021/11/03 00:58:16;;;;;;;22.23;14.90;;;19.20;65.60;;;;;;6246644;23;20129;-79
2021/11/03 01:00:41;;;;;;;21.42;14.60;;;19.10;65.70;;;;;;6246789;23;20134;-80
2021/11/03 01:03:07;;;;;;;23.20;14.35;;;19.10;66.00;;;;;;6246950;23;20221;-79
2021/11/03 01:05:37;;;;;;;20.90;14.90;;;19.10;65.90;;;;;;6246637;23;20466;-79
2021/11/03 01:08:04;;;;;;;21.85;14.95;;;19.10;66.00;;;;;;6246572;23;20196;-79
2021/11/03 01:10:30;;;;;;;23.30;15.20;;;19.10;66.00;;;;;;6246705;23;20157;-80
2021/11/03 01:12:56;;;;;;;20.70;14.65;;;19.10;65.90;;;;;;6246495;23;20526;-80
2021/11/03 01:15:23;;;;;;;23.77;16.33;;;19.10;65.80;;;;;;6246616;23;20421;-79
2021/11/03 01:17:48;;;;;;;23.77;15.70;;;19.10;65.80;;;;;;6246832;23;20553;-79
2021/11/03 01:20:14;;;;;;;21.60;14.88;;;19.10;65.90;;;;;;6219740;23;20137;-79
2021/11/03 01:22:40;;;;;;;19.58;15.27;;;19.10;66.60;;;;;;6246536;23;20145;-79
2021/11/03 01:25:06;;;;;;;23.70;15.85;;;19.10;66.30;;;;;;6194268;23;20177;-79
2021/11/03 01:27:32;;;;;;;22.65;15.60;;;19.10;66.10;;;;;;6194980;23;20533;-80
2021/11/03 01:29:58;;;;;;;23.70;15.75;;;19.10;65.70;;;;;;6246367;23;20168;-79
2021/11/03 01:32:23;;;;;;;23.67;15.88;;;19.10;66.10;;;;;;6219600;23;20133;-78
2021/11/03 01:34:49;;;;;;;24.67;16.25;;;19.10;66.00;;;;;;6246375;23;20134;-80
2021/11/03 01:37:15;;;;;;;25.42;16.35;;;19.10;65.80;;;;;;6219565;23;20137;-80
2021/11/03 01:39:40;;;;;;;22.13;14.93;;;19.10;65.50;;;;;;6194432;23;20511;-77
2021/11/03 01:42:06;;;;;;;25.48;15.75;;;19.10;65.40;;;;;;6194499;23;20148;-80
2021/11/03 01:44:32;;;;;;;22.88;15.93;;;19.10;65.90;;;;;;6246123;23;20165;-80
2021/11/03 01:47:29;;;;;;;24.65;14.93;;;19.10;65.90;;;;;;6246174;23;20141;-78
2021/11/03 01:49:55;;;;;;;25.08;16.25;;;19.10;65.60;;;;;;6246714;23;20134;-79
2021/11/03 01:52:21;;;;;;;20.80;15.38;;;19.00;65.70;;;;;;6246453;23;20660;-80
2021/11/03 01:54:49;;;;;;;24.33;16.50;;;19.10;65.90;;;;;;6219232;23;20520;-79
2021/11/03 01:57:17;;;;;;;25.27;16.88;;;19.10;65.80;;;;;;6246553;23;20129;-79
2021/11/03 01:59:45;;;;;;;22.05;15.50;;;19.10;65.20;;;;;;6245953;23;20160;-79
2021/11/03 02:02:11;;;;;;;24.42;16.63;;;19.00;66.00;;;;;;6246083;23;20129;-79
2021/11/03 02:04:37;;;;;;;23.60;16.65;;;19.10;65.60;;;;;;6246082;23;20164;-79
2021/11/03 02:07:05;;;;;;;24.83;16.85;;;19.10;65.60;;;;;;6219153;23;20176;-79
2021/11/03 02:09:31;;;;;;;25.85;17.48;;;19.00;65.80;;;;;;6219694;23;20148;-79
2021/11/03 02:11:56;;;;;;;24.33;16.63;;;19.00;65.20;;;;;;6246094;23;20465;-79
2021/11/03 02:14:22;;;;;;;24.50;16.73;;;19.00;65.90;;;;;;6245937;23;20137;-79
2021/11/03 02:16:52;;;;;;;24.77;17.05;;;19.00;65.50;;;;;;6246596;23;20137;-79
2021/11/03 02:19:23;;;;;;;25.05;16.98;;;19.10;65.40;;;;;;6220469;23;20222;-79
2021/11/03 02:22:04;;;;;;;24.63;16.27;;;19.00;65.50;;;;;;6245910;23;20137;-79
2021/11/03 02:24:44;;;;;;;26.95;17.77;;;19.00;65.60;;;;;;6245947;23;20173;-78
2021/11/03 02:27:10;;;;;;;23.13;16.13;;;19.00;65.30;;;;;;6246131;23;20508;-79
2021/11/03 02:29:36;;;;;;;23.42;16.08;;;19.00;65.40;;;;;;6245827;23;20133;-79
2021/11/03 02:32:16;;;;;;;28.00;18.25;;;19.00;65.70;;;;;;6246304;23;20237;-79
2021/11/03 02:34:41;;;;;;;23.15;16.33;;;19.00;65.30;;;;;;6246240;23;20137;-78
2021/11/03 02:37:37;;;;;;;27.00;18.08;;;19.00;65.60;;;;;;6245900;23;20137;-79
2021/11/03 02:40:08;;;;;;;29.08;18.95;;;19.00;65.80;;;;;;6219607;23;20130;-80
2021/11/03 02:42:36;;;;;;;29.50;18.58;;;19.10;64.60;;;;;;6220474;23;20134;-80
2021/11/03 02:45:05;;;;;;;30.65;18.75;;;19.00;64.60;;;;;;6194566;23;20298;-80
2021/11/03 02:47:31;;;;;;;27.50;18.20;;;19.00;64.80;;;;;;6219200;23;20140;-80
2021/11/03 02:49:56;;;;;;;28.92;19.23;;;19.00;65.00;;;;;;6246209;23;20200;-80
2021/11/03 02:52:24;;;;;;;28.17;18.83;;;19.00;64.90;;;;;;6245737;23;20461;-79
2021/11/03 02:54:49;;;;;;;28.20;18.60;;;19.00;65.20;;;;;;6218968;23;20137;-80
2021/11/03 02:57:15;;;;;;;29.27;19.60;;;19.00;65.10;;;;;;6219601;23;20134;-79
2021/11/03 02:59:41;;;;;;;27.08;18.25;;;19.00;65.10;;;;;;6194055;23;20134;-79
2021/11/03 03:02:08;;;;;;;27.98;18.58;;;19.00;65.00;;;;;;6246199;23;20161;-78
2021/11/03 03:04:38;;;;;;;28.95;18.73;;;19.00;64.80;;;;;;6246042;23;20197;-80
2021/11/03 03:07:04;;;;;;;26.90;18.08;;;19.00;64.70;;;;;;6194680;23;20146;-79
2021/11/03 03:09:30;;;;;;;27.38;18.10;;;19.00;64.90;;;;;;6188804;23;20216;-80
2021/11/03 03:11:58;;;;;;;29.52;18.92;;;19.00;64.60;;;;;;6215728;23;20527;-78
2021/11/03 03:14:26;;;;;;;31.10;19.73;;;19.00;64.90;;;;;;6213949;23;20435;-78
2021/11/03 03:16:52;;;;;;;28.08;18.48;;;19.00;64.70;;;;;;6214359;23;20173;-81
2021/11/03 03:19:18;;;;;;;26.60;18.27;;;19.00;64.80;;;;;;6215371;23;20592;-80
2021/11/03 03:21:43;;;;;;;28.67;18.27;;;19.00;64.60;;;;;;6214162;23;20142;-80
2021/11/03 03:24:09;;;;;;;28.17;18.38;;;19.00;64.70;;;;;;6215863;23;20539;-78
2021/11/03 03:26:35;;;;;;;30.77;19.15;;;19.00;64.80;;;;;;6215570;23;20237;-80
2021/11/03 03:29:01;;;;;;;28.08;18.55;;;19.00;64.50;;;;;;6215570;23;20162;-80
2021/11/03 03:31:27;;;;;;;25.73;18.00;;;19.00;64.70;;;;;;6215377;23;20134;-80
2021/11/03 03:33:54;;;;;;;27.52;18.13;;;19.00;64.90;;;;;;6215210;23;20177;-78
2021/11/03 03:36:20;;;;;;;27.58;17.73;;;19.00;64.80;;;;;;6214013;23;20588;-79
2021/11/03 03:38:46;;;;;;;27.33;18.38;;;19.00;65.60;;;;;;6215585;23;20443;-78
2021/11/03 03:41:12;;;;;;;28.92;18.55;;;19.00;64.70;;;;;;6217134;23;20138;-78
2021/11/03 03:43:38;;;;;;;25.05;18.00;;;19.00;64.60;;;;;;6191053;23;20177;-78
2021/11/03 03:46:03;;;;;;;31.35;19.92;;;19.00;65.40;;;;;;6217151;23;20138;-79
2021/11/03 03:48:29;;;;;;;26.80;18.02;;;19.00;64.70;;;;;;6217136;23;20134;-79
2021/11/03 03:50:55;;;;;;;28.50;19.30;;;19.00;64.70;;;;;;6217084;23;20130;-79
2021/11/03 03:53:21;;;;;;;28.27;18.58;;;18.90;64.50;;;;;;6216927;23;20135;-80
2021/11/03 03:55:48;;;;;;;28.73;19.48;;;18.90;65.00;;;;;;6216996;23;20139;-78
2021/11/03 03:58:14;;;;;;;30.45;18.42;;;18.90;64.90;;;;;;6216939;23;20130;-78
2021/11/03 04:00:39;;;;;;;25.73;18.00;;;18.90;64.70;;;;;;6215584;23;20140;-79
2021/11/03 04:03:06;;;;;;;32.72;19.83;;;18.90;64.60;;;;;;6215474;23;20465;-77
2021/11/03 04:05:32;;;;;;;28.63;18.85;;;18.90;64.70;;;;;;6216880;23;20138;-77
2021/11/03 04:07:57;;;;;;;26.77;18.20;;;18.90;64.70;;;;;;6215212;23;20194;-78
2021/11/03 04:10:23;;;;;;;26.52;17.92;;;18.90;64.60;;;;;;6216971;23;20154;-79
2021/11/03 04:12:49;;;;;;;28.88;17.88;;;19.00;64.30;;;;;;6216799;23;20130;-79
2021/11/03 04:15:14;;;;;;;29.13;18.65;;;19.00;64.20;;;;;;6217191;23;20154;-78
2021/11/03 04:17:40;;;;;;;26.65;18.17;;;19.00;64.10;;;;;;6217038;23;20189;-77
2021/11/03 04:20:08;;;;;;;25.38;17.13;;;19.00;64.20;;;;;;6215789;23;20217;-80
2021/11/03 04:22:33;;;;;;;27.80;17.52;;;19.00;64.10;;;;;;6216997;23;20184;-79
2021/11/03 04:24:59;;;;;;;27.20;18.00;;;19.00;64.20;;;;;;6214951;23;20173;-80
2021/11/03 04:27:25;;;;;;;24.80;17.67;;;19.10;64.20;;;;;;6216760;23;20130;-80
2021/11/03 04:29:50;;;;;;;24.48;17.33;;;19.10;64.00;;;;;;6216948;23;20149;-80
2021/11/03 04:32:16;;;;;;;25.90;17.92;;;19.10;63.70;;;;;;6216599;23;20185;-79
2021/11/03 04:34:42;;;;;;;26.20;17.30;;;19.10;64.10;;;;;;6216674;23;20470;-80
2021/11/03 04:37:07;;;;;;;26.42;16.55;;;19.10;64.20;;;;;;6217002;23;20142;-80
2021/11/03 04:39:33;;;;;;;24.98;17.17;;;19.20;63.90;;;;;;6216587;23;20146;-79
2021/11/03 04:41:59;;;;;;;26.73;17.60;;;19.20;64.20;;;;;;6216954;23;20134;-79
2021/11/03 04:44:25;;;;;;;25.35;17.27;;;19.20;64.20;;;;;;6216768;23;20603;-79
2021/11/03 04:46:51;;;;;;;24.15;16.67;;;19.20;64.00;;;;;;6216495;23;20137;-81
2021/11/03 04:49:16;;;;;;;25.10;17.10;;;19.10;63.90;;;;;;6215182;23;20221;-79
2021/11/03 04:51:42;;;;;;;22.90;16.58;;;19.20;63.70;;;;;;6216396;23;20141;-80
2021/11/03 04:54:08;;;;;;;24.55;17.20;;;19.20;63.90;;;;;;6216767;23;20169;-80
2021/11/03 04:56:35;;;;;;;25.10;16.83;;;19.20;63.80;;;;;;6216705;23;20580;-79
2021/11/03 04:59:00;;;;;;;25.83;17.13;;;19.20;63.90;;;;;;6216791;23;20141;-80
2021/11/03 05:01:26;;;;;;;24.55;16.83;;;19.30;63.70;;;;;;6214946;23;20134;-79
2021/11/03 05:03:53;;;;;;;25.98;16.77;;;19.30;63.50;;;;;;6214815;23;20586;-80
2021/11/03 05:06:21;;;;;;;22.45;15.88;;;19.30;63.60;;;;;;6190074;23;20134;-80
2021/11/03 05:08:47;;;;;;;23.20;16.38;;;19.30;63.50;;;;;;6190158;23;20273;-79
2021/11/03 05:11:13;;;;;;;24.88;16.70;;;19.30;63.00;;;;;;6214655;23;20157;-81
2021/11/03 05:13:39;;;;;;;23.73;16.60;;;19.30;63.00;;;;;;6215041;23;20464;-78
2021/11/03 05:16:04;;;;;;;24.88;16.23;;;19.30;63.10;;;;;;6216249;23;20181;-80
2021/11/03 05:18:31;;;;;;;24.10;16.52;;;19.30;62.90;;;;;;6214862;23;20519;-79
2021/11/03 05:20:57;;;;;;;22.52;16.55;;;19.30;62.80;;;;;;6214534;23;20463;-79
2021/11/03 05:23:25;;;;;;;23.90;15.93;;;19.30;63.00;;;;;;6214535;23;20570;-78
2021/11/03 05:25:52;;;;;;;24.73;16.75;;;19.40;62.70;;;;;;6216233;23;20134;-79
2021/11/03 05:28:18;;;;;;;24.35;17.02;;;19.30;62.70;;;;;;6189595;23;20145;-80
2021/11/03 05:30:43;;;;;;;22.75;16.52;;;19.30;62.90;;;;;;6214583;23;20470;-80
2021/11/03 05:33:09;;;;;;;23.27;15.88;;;19.30;62.70;;;;;;6216515;23;20459;-79
2021/11/03 05:35:35;;;;;;;23.20;15.68;;;19.40;62.80;;;;;;6214969;23;20138;-79
2021/11/03 05:38:00;;;;;;;25.95;16.83;;;19.40;62.60;;;;;;6189545;23;20220;-79
2021/11/03 05:40:27;;;;;;;23.38;16.17;;;19.40;63.60;;;;;;6215788;23;20218;-79
2021/11/03 05:42:52;;;;;;;24.23;17.02;;;19.40;62.50;;;;;;6214808;23;20130;-80
2021/11/03 05:45:18;;;;;;;24.48;16.63;;;19.40;62.70;;;;;;6189343;23;20193;-80
2021/11/03 05:47:44;;;;;;;23.65;16.83;;;19.40;62.60;;;;;;6216245;23;20138;-78
2021/11/03 05:50:12;;;;;;;22.83;15.65;;;19.40;62.50;;;;;;6215995;23;20134;-81
2021/11/03 05:52:38;;;;;;;23.13;15.63;;;19.30;62.20;;;;;;6216343;23;20598;-80
2021/11/03 05:55:04;;;;;;;23.58;16.67;;;19.40;63.10;;;;;;6215767;23;20130;-78
2021/11/03 05:57:32;;;;;;;24.13;17.05;;;19.40;62.40;;;;;;6215861;23;20134;-80
2021/11/03 05:59:58;;;;;;;24.10;16.75;;;19.40;62.20;;;;;;6189217;23;20461;-80
2021/11/03 06:02:24;;;;;;;23.13;16.25;;;19.40;62.00;;;;;;6215882;23;20558;-79
2021/11/03 06:04:49;;;;;;;24.20;16.15;;;19.40;62.00;;;;;;6215774;23;20174;-78
2021/11/03 06:07:15;;;;;;;24.40;16.38;;;19.40;62.20;;;;;;6217358;23;20142;-79
2021/11/03 06:09:41;;;;;;;23.90;16.10;;;19.40;62.90;;;;;;6219962;23;20146;-79
2021/11/03 06:12:08;;;;;;;24.00;15.77;;;19.40;62.00;;;;;;6219597;23;20134;-79
2021/11/03 06:14:33;;;;;;;22.00;15.48;;;19.40;62.00;;;;;;6246286;23;20204;-81
2021/11/03 06:16:59;;;;;;;24.63;16.15;;;19.40;61.90;;;;;;6246041;23;20169;-78
2021/11/03 06:19:25;;;;;;;23.98;15.25;;;19.40;62.10;;;;;;6219205;23;20468;-79
2021/11/03 06:21:52;;;;;;;24.92;16.05;;;19.40;62.10;;;;;;6245882;23;20199;-78
2021/11/03 06:24:18;;;;;;;21.63;15.32;;;19.40;62.10;;;;;;6246170;23;20173;-78
2021/11/03 06:26:44;;;;;;;24.10;16.55;;;19.40;61.80;;;;;;6245845;23;20133;-81
2021/11/03 06:29:09;;;;;;;24.50;16.52;;;19.40;62.00;;;;;;6219228;23;20456;-79
2021/11/03 06:31:35;;;;;;;23.33;15.80;;;19.40;61.90;;;;;;6245874;23;20199;-80
2021/11/03 06:34:04;;;;;;;23.95;15.93;;;19.50;61.70;;;;;;6219046;23;20148;-78
2021/11/03 06:36:30;;;;;;;23.90;16.30;;;19.40;61.70;;;;;;6245821;23;20569;-78
2021/11/03 06:38:55;;;;;;;22.63;15.07;;;19.50;62.00;;;;;;6246058;23;20228;-78
2021/11/03 06:41:22;;;;;;;23.58;16.38;;;19.50;61.60;;;;;;6245806;23;20133;-79
2021/11/03 06:43:48;;;;;;;22.95;15.95;;;19.50;61.90;;;;;;6246191;23;20222;-80
2021/11/03 06:46:14;;;;;;;25.25;16.30;;;19.50;61.80;;;;;;6245195;23;20212;-79
2021/11/03 06:48:40;;;;;;;22.33;15.88;;;19.50;62.10;;;;;;6219724;23;20562;-80
2021/11/03 06:51:06;;;;;;;22.23;15.80;;;19.50;61.80;;;;;;6194040;23;20137;-80
2021/11/03 06:53:32;;;;;;;23.52;16.25;;;19.50;61.40;;;;;;6219372;23;20137;-79
2021/11/03 06:55:59;;;;;;;23.58;16.55;;;19.50;61.60;;;;;;6245933;23;20129;-80
2021/11/03 06:58:25;;;;;;;25.33;16.45;;;19.50;61.60;;;;;;6219027;23;20453;-78
2021/11/03 07:00:52;;;;;;;24.73;16.42;;;19.50;61.30;;;;;;6245569;23;20130;-80
2021/11/03 07:03:18;;;;;;;25.40;16.95;;;19.50;61.50;;;;;;6194169;23;20461;-80
2021/11/03 07:05:46;;;;;;;23.10;16.33;;;19.50;61.60;;;;;;6219411;23;20134;-79
2021/11/03 07:08:12;;;;;;;25.52;16.70;;;19.50;61.50;;;;;;6218999;23;20197;-82
2021/11/03 07:10:40;;;;;;;22.98;16.13;;;19.50;61.50;;;;;;6246440;23;20652;-81
2021/11/03 07:13:08;;;;;;;22.77;16.30;;;19.50;61.30;;;;;;6222759;23;20164;-80
2021/11/03 07:15:34;;;;;;;23.80;16.25;;;19.60;61.60;;;;;;6222353;23;20188;-82
2021/11/03 07:18:00;;;;;;;25.25;15.57;;;19.50;61.50;;;;;;6248229;23;20627;-79
2021/11/03 07:20:26;;;;;;;22.70;15.90;;;19.60;61.30;;;;;;6249037;23;20134;-80
2021/11/03 07:22:52;;;;;;;23.67;15.93;;;19.60;61.40;;;;;;6221482;23;20160;-79
2021/11/03 07:25:19;;;;;;;23.52;15.95;;;19.60;62.00;;;;;;6197276;23;20172;-82
2021/11/03 07:27:46;;;;;;;24.58;16.20;;;19.60;61.50;;;;;;6248625;23;20129;-80
2021/11/03 07:30:19;;;;;;;22.23;15.85;;;19.70;61.20;;;;;;6249203;23;20122;-81
2021/11/03 07:32:45;;;;;;;22.73;15.98;;;19.70;60.80;;;;;;6134729;23;20155;-83
2021/11/03 07:35:11;;;;;;;23.88;15.77;;;19.60;60.80;;;;;;6185240;23;20154;-82
2021/11/03 07:37:37;;;;;;;23.63;16.50;;;19.60;60.50;;;;;;6160204;23;20185;-84
2021/11/03 07:40:06;;;;;;;22.83;15.77;;;19.70;60.60;;;;;;6159871;23;20161;-82
2021/11/03 07:42:31;;;;;;;22.23;15.90;;;19.70;60.30;;;;;;6133907;23;20147;-85
2021/11/03 07:44:57;;;;;;;23.85;16.25;;;19.70;60.50;;;;;;6158790;23;20271;-82
2021/11/03 07:47:23;;;;;;;24.30;16.73;;;19.70;60.50;;;;;;6133893;23;20139;-82
2021/11/03 07:49:49;;;;;;;23.00;15.35;;;19.70;60.40;;;;;;6134814;23;20545;-84
2021/11/03 07:52:15;;;;;;;23.70;16.38;;;19.70;60.40;;;;;;6110393;23;20158;-81
2021/11/03 07:54:41;;;;;;;26.92;17.25;;;19.70;60.30;;;;;;6135061;23;20173;-83
2021/11/03 07:57:07;;;;;;;22.88;16.33;;;19.70;60.30;;;;;;6110847;23;20179;-83
2021/11/03 07:59:32;;;;;;;24.55;16.45;;;19.80;60.40;;;;;;6134978;23;20187;-82
2021/11/03 08:01:59;;;;;;;23.02;15.95;;;19.70;60.40;;;;;;6110747;23;20150;-82
2021/11/03 08:04:25;;;;;;;23.50;15.95;;;19.80;60.30;;;;;;6110475;23;20657;-84
2021/11/03 08:06:51;;;;;;;24.70;16.55;;;19.80;60.40;;;;;;6134923;23;20482;-84
2021/11/03 08:09:17;;;;;;;24.27;16.05;;;19.80;60.10;;;;;;6134747;23;20194;-82
2021/11/03 08:11:54;;;;;;;23.50;15.95;;;19.80;60.10;;;;;;6134931;23;20576;-81
2021/11/03 08:14:22;;;;;;;24.08;16.48;;;19.80;60.00;;;;;;6140925;23;20241;-84
2021/11/03 08:16:53;;;;;;;24.27;15.90;;;19.80;59.90;;;;;;6135592;23;20622;-83
2021/11/03 08:19:22;;;;;;;22.58;16.08;;;19.80;60.10;;;;;;6111380;23;20143;-83
2021/11/03 08:21:49;;;;;;;24.13;16.15;;;19.80;60.00;;;;;;6111333;23;20151;-85
2021/11/03 08:24:15;;;;;;;28.13;17.65;;;19.80;60.10;;;;;;6135421;23;20258;-84
2021/11/03 08:26:41;;;;;;;22.63;15.77;;;19.80;60.10;;;;;;6135884;23;20530;-82
2021/11/03 08:29:07;;;;;;;22.23;15.35;;;19.80;59.80;;;;;;6135874;23;20138;-83
2021/11/03 08:31:33;;;;;;;24.58;16.42;;;19.80;59.90;;;;;;6160568;23;20138;-85
2021/11/03 08:33:59;;;;;;;25.02;16.65;;;19.80;59.80;;;;;;6157431;23;20190;-83
2021/11/03 08:36:25;;;;;;;23.55;16.50;;;19.80;59.90;;;;;;6198631;23;20146;-84
2021/11/03 08:38:53;;;;;;;23.08;15.93;;;19.80;59.80;;;;;;6193377;23;20162;-82
2021/11/03 08:41:19;;;;;;;25.58;17.20;;;19.80;59.90;;;;;;6220578;23;20197;-84
2021/11/03 08:43:46;;;;;;;23.98;15.73;;;19.90;59.90;;;;;;6200055;23;20166;-84
2021/11/03 08:46:14;;;;;;;25.45;16.65;;;19.80;60.00;;;;;;6172357;23;20229;-84
2021/11/03 08:48:40;;;;;;;23.58;15.90;;;19.80;60.00;;;;;;6195305;23;20150;-83
2021/11/03 08:51:06;;;;;;;23.38;16.13;;;19.80;59.90;;;;;;6197644;23;20137;-84
2021/11/03 08:53:31;;;;;;;26.70;17.33;;;19.90;59.90;;;;;;6218152;23;20153;-86
2021/11/03 08:55:57;;;;;;;25.00;17.13;;;19.80;60.30;;;;;;6219950;23;20134;-83
2021/11/03 08:58:24;;;;;;;26.67;17.35;;;19.90;60.30;;;;;;6193855;23;20196;-81
2021/11/03 09:00:52;;;;;;;26.08;17.33;;;19.90;60.10;;;;;;6218993;23;20127;-81
2021/11/03 09:03:18;;;;;;;25.42;16.67;;;19.80;60.10;;;;;;6191915;23;20130;-80
2021/11/03 09:05:43;;;;;;;26.45;16.27;;;19.80;59.90;;;;;;6191780;23;20173;-83
2021/11/03 09:08:11;;;;;;;24.80;16.52;;;19.80;59.60;;;;;;6216655;23;20269;-81
2021/11/03 09:10:45;;;;;;;25.90;16.90;;;19.80;59.70;;;;;;6193787;23;20237;-82
2021/11/03 09:13:16;;;;;;;26.50;16.60;;;19.80;59.70;;;;;;6219066;23;20135;-82
2021/11/03 09:15:42;;;;;;;27.92;17.83;;;19.90;59.60;;;;;;6168166;23;20209;-80
2021/11/03 09:18:08;;;;;;;26.90;17.67;;;19.80;59.70;;;;;;6220202;23;20501;-81
2021/11/03 09:20:33;;;;;;;25.40;17.65;;;19.90;59.70;;;;;;6218158;23;20157;-83
2021/11/03 09:22:59;;;;;;;25.73;17.35;;;19.80;59.70;;;;;;6220133;23;20461;-82
2021/11/03 09:25:24;;;;;;;24.35;16.63;;;19.80;59.90;;;;;;6192573;23;20181;-81
2021/11/03 09:27:52;;;;;;;25.00;16.73;;;19.80;59.90;;;;;;6218069;23;20221;-81
2021/11/03 09:30:23;;;;;;;26.63;17.60;;;19.90;60.10;;;;;;6222222;23;20562;-81
2021/11/03 09:32:50;;;;;;;26.17;17.02;;;19.80;59.90;;;;;;6203767;23;20134;-82
2021/11/03 09:35:16;;;;;;;24.63;16.15;;;19.80;59.90;;;;;;6176077;23;20142;-81
2021/11/03 09:37:42;;;;;;;26.15;17.00;;;19.80;59.80;;;;;;6175773;23;20149;-83
2021/11/03 09:40:14;;;;;;;26.92;17.52;;;19.80;59.80;;;;;;6195902;23;20553;-83
2021/11/03 09:42:48;;;;;;;29.10;17.05;;;19.90;59.90;;;;;;6221555;23;20188;-83
2021/11/03 09:45:27;;;;;;;23.88;15.50;;;19.80;59.70;;;;;;6201880;23;20216;-84
2021/11/03 09:48:15;;;;;;;26.55;16.80;;;19.90;58.70;;;;;;6225502;23;20462;-84
2021/11/03 09:50:48;;;;;;;28.52;16.10;;;19.80;59.50;;;;;;6206945;23;20214;-83
2021/11/03 09:53:36;;;;;;;25.45;16.70;;;19.90;59.10;;;;;;6199011;23;20166;-84
2021/11/03 09:56:02;;;;;;;26.63;16.67;;;19.90;59.10;;;;;;6198892;23;20138;-82
2021/11/03 09:58:37;;;;;;;30.15;16.73;;;19.90;58.50;;;;;;6197554;23;20138;-83
2021/11/03 10:01:42;;;;;;;26.77;16.20;;;19.90;58.90;;;;;;6198792;23;20166;-83
2021/11/03 10:04:35;;;;;;;31.10;17.23;;;19.90;59.50;;;;;;6223297;23;20172;-83
2021/11/03 10:07:25;;;;;;;30.98;16.70;;;19.90;59.10;;;;;;6207619;23;20134;-83
2021/11/03 10:09:54;;;;;;;32.20;17.65;;;19.90;59.40;;;;;;6202667;23;20166;-84
2021/11/03 10:12:20;;;;;;;26.70;17.08;;;19.90;59.60;;;;;;6224347;23;20130;-84
2021/11/03 10:14:46;;;;;;;26.48;17.45;;;20.00;59.50;;;;;;6196081;23;20149;-80
2021/11/03 10:17:21;;;;;;;29.02;17.55;;;19.90;59.90;;;;;;6170852;23;20145;-80
2021/11/03 10:19:47;;;;;;;24.83;16.58;;;19.90;59.70;;;;;;6194511;23;20585;-81
2021/11/03 10:22:36;;;;;;;24.65;15.85;;;19.90;60.10;;;;;;6220879;23;20130;-80
2021/11/03 10:25:24;;;;;;;26.92;15.90;;;19.90;59.40;;;;;;6220017;23;20198;-80
2021/11/03 10:27:56;;;;;;;28.80;17.02;;;20.00;59.90;;;;;;6216419;23;20153;-80
2021/11/03 10:30:26;;;;;;;28.27;16.75;;;19.90;59.40;;;;;;6191383;23;20141;-79
2021/11/03 10:32:53;;;;;;;26.50;16.35;;;19.90;59.80;;;;;;6217613;23;20137;-80
2021/11/03 10:35:29;;;;;;;25.38;16.67;;;19.90;59.80;;;;;;6217830;23;20216;-80
2021/11/03 10:38:01;;;;;;;26.52;16.52;;;20.00;59.30;;;;;;6192282;23;20204;-79
2021/11/03 10:40:32;;;;;;;27.75;16.58;;;19.90;60.00;;;;;;6166860;23;20193;-80
2021/11/03 10:43:02;;;;;;;28.23;17.02;;;19.90;59.60;;;;;;6217813;23;20137;-81
2021/11/03 10:45:33;;;;;;;25.80;16.33;;;20.00;59.50;;;;;;6217503;23;20162;-80
2021/11/03 10:48:27;;;;;;;25.88;16.73;;;19.90;59.60;;;;;;6195301;23;20565;-80
2021/11/03 10:51:10;;;;;;;25.80;16.38;;;20.00;59.30;;;;;;6221766;23;20562;-80
2021/11/03 10:54:03;;;;;;;28.42;16.58;;;20.00;59.90;;;;;;6196307;23;20146;-80
2021/11/03 10:56:31;;;;;;;28.77;16.27;;;19.90;59.70;;;;;;6200133;23;20127;-80
2021/11/03 10:59:01;;;;;;;26.15;16.83;;;19.90;59.20;;;;;;6195758;23;20131;-80
2021/11/03 11:01:31;;;;;;;27.33;16.65;;;20.00;59.60;;;;;;6220431;23;20439;-79
2021/11/03 11:04:29;;;;;;;29.70;17.05;;;19.90;59.60;;;;;;6195135;23;20173;-81
2021/11/03 11:07:07;;;;;;;23.80;15.70;;;20.00;59.60;;;;;;6198693;23;20161;-81
2021/11/03 11:09:38;;;;;;;34.58;16.60;;;20.00;59.70;;;;;;6194592;23;20154;-80
2021/11/03 11:12:21;;;;;;;31.65;17.25;;;20.00;59.60;;;;;;6195380;23;20149;-80
2021/11/03 11:14:47;;;;;;;29.38;16.50;;;20.00;59.70;;;;;;6220793;23;20225;-81
2021/11/03 11:17:18;;;;;;;27.33;16.65;;;20.00;59.70;;;;;;6219629;23;20138;-81
2021/11/03 11:20:02;;;;;;;24.40;15.73;;;20.00;59.60;;;;;;6221999;23;20126;-80
2021/11/03 11:22:42;;;;;;;25.60;16.27;;;19.90;60.00;;;;;;6221557;23;20157;-80
2021/11/03 11:25:12;;;;;;;30.90;17.08;;;20.00;59.80;;;;;;6220508;23;20636;-81
2021/11/03 11:27:57;;;;;;;25.17;15.50;;;19.90;59.50;;;;;;6220202;23;20480;-81
2021/11/03 11:30:24;;;;;;;26.52;16.88;;;19.90;59.30;;;;;;6222384;23;20134;-80
2021/11/03 11:33:11;;;;;;;25.15;16.00;;;20.00;59.40;;;;;;6194490;23;20209;-80
2021/11/03 11:35:52;;;;;;;25.13;16.25;;;20.00;59.50;;;;;;6221220;23;20131;-81
2021/11/03 11:38:26;;;;;;;25.63;16.02;;;19.90;59.60;;;;;;6219065;23;20165;-81
2021/11/03 11:40:57;;;;;;;24.73;16.23;;;20.00;59.90;;;;;;6193254;23;20233;-81
2021/11/03 11:43:41;;;;;;;23.27;16.02;;;20.00;59.60;;;;;;6221393;23;20139;-79
2021/11/03 11:46:24;;;;;;;26.30;16.70;;;20.00;59.70;;;;;;6220898;23;20197;-80
2021/11/03 11:48:59;;;;;;;26.67;16.30;;;20.00;60.00;;;;;;6217631;23;20213;-81
2021/11/03 11:51:30;;;;;;;24.27;15.75;;;20.00;59.80;;;;;;6197398;23;20130;-80
2021/11/03 11:54:21;;;;;;;26.05;16.83;;;20.00;59.80;;;;;;6195559;23;20145;-82
2021/11/03 11:57:11;;;;;;;25.98;16.17;;;20.00;59.50;;;;;;6196786;23;20466;-81
2021/11/03 11:59:57;;;;;;;25.73;16.25;;;19.90;59.30;;;;;;6221352;23;20150;-81
2021/11/03 12:02:25;;;;;;;27.30;16.48;;;19.90;59.10;;;;;;6193226;23;20139;-81
2021/11/03 12:05:14;;;;;;;27.83;15.75;;;20.00;59.40;;;;;;6217638;23;20578;-82
2021/11/03 12:07:39;;;;;;;28.67;16.60;;;20.00;59.30;;;;;;6219637;23;20205;-79
2021/11/03 12:10:34;;;;;;;29.30;16.50;;;19.90;59.80;;;;;;6219865;23;20150;-82
2021/11/03 12:13:16;;;;;;;28.77;16.98;;;19.90;60.30;;;;;;6157776;23;20151;-81
2021/11/03 12:16:04;;;;;;;32.45;17.02;;;19.90;60.50;;;;;;6135678;23;20158;-80
2021/11/03 12:18:44;;;;;;;26.60;16.40;;;19.90;60.60;;;;;;6159571;23;20151;-81
2021/11/03 12:21:15;;;;;;;26.92;17.05;;;19.90;60.50;;;;;;6158874;23;20205;-82
2021/11/03 12:23:51;;;;;;;24.95;16.17;;;19.90;60.70;;;;;;6158430;23;20170;-81
2021/11/03 12:26:34;;;;;;;24.17;15.98;;;19.90;60.70;;;;;;6154894;23;20710;-80
2021/11/03 12:29:22;;;;;;;27.50;16.23;;;19.90;60.30;;;;;;6129410;23;20623;-80
2021/11/03 12:31:57;;;;;;;24.88;15.80;;;19.90;60.40;;;;;;6156277;23;20612;-80
2021/11/03 12:34:28;;;;;;;24.73;16.30;;;19.90;60.20;;;;;;6107067;23;20633;-81
2021/11/03 12:37:30;;;;;;;26.70;15.65;;;20.00;60.30;;;;;;6106759;23;20227;-80
2021/11/03 12:39:59;;;;;;;30.77;16.35;;;20.00;60.40;;;;;;6137135;23;20159;-80